createdAt,value
2019-01-23T00:02:10.021Z,44.33
2019-01-23T00:04:49.282Z,46.97
2019-01-23T00:07:28.538Z,46.30
2019-01-23T00:10:08.689Z,41.77
2019-01-23T00:12:49.034Z,43.73
2019-01-23T00:15:32.771Z,44.43
2019-01-23T00:18:14.234Z,41.30
2019-01-23T00:20:53.485Z,47.07
2019-01-23T00:23:32.719Z,40.67
2019-01-23T00:26:11.948Z,48.83
2019-01-23T00:28:52.026Z,46.90
2019-01-23T00:31:32.475Z,42.60
2019-01-23T00:34:13.068Z,43.13
2019-01-23T00:36:52.266Z,40.07
2019-01-23T00:39:31.464Z,43.47
2019-01-23T00:42:10.824Z,45.23
2019-01-23T00:44:50.191Z,46.30
2019-01-23T00:47:29.652Z,47.23
2019-01-23T00:50:09.787Z,46.37
2019-01-23T00:52:49.134Z,46.90
2019-01-23T00:55:32.241Z,46.33
2019-01-23T00:58:12.377Z,41.50
2019-01-23T01:00:51.711Z,40.83
2019-01-23T01:03:32.887Z,51.20
2019-01-23T01:06:12.556Z,49.47
2019-01-23T01:08:51.869Z,43.20
2019-01-23T01:11:31.111Z,50.80
2019-01-23T01:14:10.268Z,46.37
2019-01-23T01:16:50.623Z,49.70
2019-01-23T01:19:29.911Z,45.13
2019-01-23T01:22:09.293Z,51.77
2019-01-23T01:24:48.532Z,50.87
2019-01-23T01:27:27.663Z,56.00
2019-01-23T01:30:11.784Z,57.40
2019-01-23T01:32:50.965Z,53.67
2019-01-23T01:35:30.200Z,52.73
2019-01-23T01:38:09.318Z,60.90
2019-01-23T01:40:48.811Z,51.40
2019-01-23T01:43:33.065Z,53.50
2019-01-23T01:46:12.587Z,64.20
2019-01-23T01:48:51.792Z,60.57
2019-01-23T01:51:34.195Z,58.03
2019-01-23T01:54:13.484Z,64.13
2019-01-23T01:56:52.817Z,59.67
2019-01-23T01:59:32.034Z,59.83
2019-01-23T02:02:12.261Z,66.03
2019-01-23T02:04:53.628Z,65.13
2019-01-23T02:07:45.344Z,66.57
2019-01-23T02:10:24.695Z,66.37
2019-01-23T02:13:03.912Z,68.50
2019-01-23T02:15:43.139Z,66.97
2019-01-23T02:18:22.354Z,71.23
2019-01-23T02:21:01.617Z,75.03
2019-01-23T02:23:40.850Z,72.90
2019-01-23T02:26:20.082Z,70.47
2019-01-23T02:28:59.545Z,72.30
2019-01-23T02:31:38.682Z,72.43
2019-01-23T02:34:17.999Z,78.97
2019-01-23T02:36:57.158Z,73.30
2019-01-23T02:39:36.278Z,79.73
2019-01-23T02:42:15.720Z,79.00
2019-01-23T02:44:54.911Z,76.03
2019-01-23T02:47:34.151Z,72.53
2019-01-23T02:50:13.932Z,71.73
2019-01-23T02:52:55.317Z,75.53
2019-01-23T02:55:34.479Z,80.77
2019-01-23T02:58:13.714Z,75.23
2019-01-23T03:00:53.816Z,82.77
2019-01-23T03:03:32.961Z,78.00
2019-01-23T03:06:14.410Z,79.07
2019-01-23T03:08:53.638Z,86.03
2019-01-23T03:11:33.797Z,81.37
2019-01-23T03:14:13.867Z,79.07
2019-01-23T03:16:53.019Z,76.63
2019-01-23T03:19:32.189Z,85.50
2019-01-23T03:22:11.474Z,77.00
2019-01-23T03:24:50.578Z,75.87
2019-01-23T03:27:29.786Z,78.33
2019-01-23T03:30:18.490Z,84.73
2019-01-23T03:32:57.741Z,81.30
2019-01-23T03:35:36.860Z,79.47
2019-01-23T03:38:16.037Z,73.67
2019-01-23T03:40:56.325Z,80.30
2019-01-23T03:43:35.426Z,88.83
2019-01-23T03:46:14.628Z,80.87
2019-01-23T03:48:53.796Z,83.77
2019-01-23T03:51:33.024Z,78.80
2019-01-23T03:54:13.393Z,80.83
2019-01-23T03:56:52.962Z,78.13
2019-01-23T03:59:32.463Z,82.40
2019-01-23T04:02:12.029Z,82.80
2019-01-23T04:04:51.722Z,89.57
2019-01-23T04:07:30.931Z,78.70
2019-01-23T04:10:13.255Z,76.20
2019-01-23T04:12:54.137Z,81.20
2019-01-23T04:15:34.777Z,82.20
2019-01-23T04:18:15.159Z,76.97
2019-01-23T04:20:54.725Z,89.77
2019-01-23T04:23:35.557Z,88.43
2019-01-23T04:26:14.730Z,83.13
2019-01-23T04:28:54.019Z,86.33
2019-01-23T04:31:33.237Z,84.17
2019-01-23T04:34:12.570Z,83.83
2019-01-23T04:36:51.755Z,79.63
2019-01-23T04:39:30.928Z,78.47
2019-01-23T04:42:12.484Z,73.70
2019-01-23T04:44:51.717Z,80.67
2019-01-23T04:47:31.080Z,74.47
2019-01-23T04:50:12.296Z,77.90
2019-01-23T04:53:00.187Z,71.20
2019-01-23T04:55:41.088Z,79.80
2019-01-23T04:58:20.581Z,72.63
2019-01-23T05:00:59.804Z,72.30
2019-01-23T05:03:39.040Z,72.40
2019-01-23T05:06:18.312Z,78.80
2019-01-23T05:09:04.795Z,72.10
2019-01-23T05:11:43.990Z,76.47
2019-01-23T05:14:23.325Z,71.73
2019-01-23T05:17:02.462Z,76.67
2019-01-23T05:19:41.606Z,81.17
2019-01-23T05:22:20.749Z,79.07
2019-01-23T05:24:59.988Z,74.03
2019-01-23T05:27:51.098Z,75.53
2019-01-23T05:30:30.350Z,77.83
2019-01-23T05:33:09.533Z,79.23
2019-01-23T05:35:48.647Z,75.37
2019-01-23T05:38:27.754Z,79.67
2019-01-23T05:41:07.448Z,72.57
2019-01-23T05:43:46.624Z,76.20
2019-01-23T05:46:25.840Z,76.43
2019-01-23T05:49:05.087Z,72.43
2019-01-23T05:51:44.380Z,70.33
2019-01-23T05:54:23.642Z,75.97
2019-01-23T05:57:03.006Z,72.77
2019-01-23T05:59:42.208Z,65.83
2019-01-23T06:02:21.287Z,78.53
2019-01-23T06:05:00.502Z,71.57
2019-01-23T06:07:39.680Z,62.70
2019-01-23T06:10:18.963Z,61.27
2019-01-23T06:12:58.109Z,64.70
2019-01-23T06:15:37.363Z,61.57
2019-01-23T06:18:16.510Z,73.13
2019-01-23T06:20:55.725Z,75.20
2019-01-23T06:23:34.967Z,68.07
2019-01-23T06:26:14.184Z,66.43
2019-01-23T06:28:53.387Z,62.93
2019-01-23T06:31:32.722Z,72.90
2019-01-23T06:34:14.311Z,68.77
2019-01-23T06:36:53.586Z,71.67
2019-01-23T06:39:32.837Z,72.23
2019-01-23T06:42:12.008Z,77.17
2019-01-23T06:44:51.447Z,68.90
2019-01-23T06:47:30.538Z,74.23
2019-01-23T06:50:14.112Z,70.53
2019-01-23T06:52:53.259Z,74.93
2019-01-23T06:55:32.863Z,79.47
2019-01-23T06:58:12.035Z,77.00
2019-01-23T07:00:51.176Z,72.87
2019-01-23T07:03:30.487Z,73.90
2019-01-23T07:06:10.733Z,75.17
2019-01-23T07:08:51.688Z,73.33
2019-01-23T07:11:30.937Z,69.40
2019-01-23T07:14:10.176Z,74.43
2019-01-23T07:16:51.995Z,73.60
2019-01-23T07:19:32.308Z,73.93
2019-01-23T07:22:11.405Z,76.03
2019-01-23T07:24:53.457Z,78.93
2019-01-23T07:27:34.048Z,78.50
2019-01-23T07:30:40.049Z,79.77
2019-01-23T07:33:19.358Z,80.60
2019-01-23T07:35:58.551Z,82.00
2019-01-23T07:38:37.847Z,85.87
2019-01-23T07:41:17.032Z,85.60
2019-01-23T07:43:56.133Z,86.60
2019-01-23T07:46:35.264Z,77.37
2019-01-23T07:49:14.374Z,75.87
2019-01-23T07:51:53.508Z,72.27
2019-01-23T07:54:34.935Z,75.30
2019-01-23T07:57:14.061Z,83.50
2019-01-23T07:59:53.405Z,80.03
2019-01-23T08:02:32.557Z,85.60
2019-01-23T08:05:19.457Z,80.73
2019-01-23T08:07:57.031Z,74.50
2019-01-23T08:10:37.172Z,88.60
2019-01-23T08:13:16.410Z,87.00
2019-01-23T08:15:55.690Z,73.67
2019-01-23T08:18:34.819Z,79.27
2019-01-23T08:21:14.052Z,83.83
2019-01-23T08:23:53.174Z,77.47
2019-01-23T08:26:32.263Z,70.87
2019-01-23T08:29:11.541Z,79.53
2019-01-23T08:31:50.734Z,65.77
2019-01-23T08:34:29.985Z,71.70
2019-01-23T08:37:09.159Z,64.53
2019-01-23T08:39:48.399Z,63.70
2019-01-23T08:42:27.840Z,67.13
2019-01-23T08:45:10.013Z,71.00
2019-01-23T08:47:57.339Z,63.00
2019-01-23T08:50:44.045Z,61.70
2019-01-23T08:53:23.210Z,70.12
2019-01-23T08:56:03.238Z,68.33
2019-01-23T08:58:43.015Z,69.03
2019-01-23T09:01:22.682Z,70.67
2019-01-23T09:04:02.382Z,70.12
2019-01-23T09:06:42.144Z,65.83
2019-01-23T09:09:22.173Z,64.95
2019-01-23T09:12:02.207Z,64.27
2019-01-23T09:14:41.913Z,62.43
2019-01-23T09:17:21.656Z,65.15
2019-01-23T09:20:01.367Z,69.67
2019-01-23T09:22:41.064Z,65.15
2019-01-23T09:25:23.819Z,69.22
2019-01-23T09:28:04.078Z,68.37
2019-01-23T09:30:52.680Z,72.40
2019-01-23T09:34:23.654Z,66.47
2019-01-23T09:37:34.675Z,65.37
2019-01-23T09:40:37.940Z,66.23
2019-01-23T09:44:18.812Z,61.37
2019-01-23T09:47:20.196Z,56.83
2019-01-23T09:51:09.759Z,61.90
2019-01-23T09:54:13.997Z,67.07
2019-01-23T09:56:53.258Z,67.60
2019-01-23T09:59:32.345Z,61.60
2019-01-23T10:02:13.709Z,64.73
2019-01-23T10:04:52.949Z,59.67
2019-01-23T10:07:34.316Z,59.27
2019-01-23T10:10:18.882Z,59.47
2019-01-23T10:12:58.102Z,57.90
2019-01-23T10:15:51.200Z,67.03
2019-01-23T10:18:32.744Z,59.67
2019-01-23T10:21:12.387Z,59.83
2019-01-23T10:23:51.918Z,58.47
2019-01-23T10:26:31.112Z,63.17
2019-01-23T10:29:10.476Z,55.10
2019-01-23T10:31:50.976Z,56.03
2019-01-23T10:34:30.202Z,62.90
2019-01-23T10:37:09.436Z,58.77
2019-01-23T10:39:48.548Z,56.33
2019-01-23T10:42:27.974Z,60.67
2019-01-23T10:45:08.984Z,61.17
2019-01-23T10:47:48.745Z,57.67
2019-01-23T10:50:28.396Z,56.53
2019-01-23T10:53:07.596Z,54.80
2019-01-23T10:55:46.724Z,55.97
2019-01-23T10:58:25.921Z,51.23
2019-01-23T11:01:05.948Z,56.02
2019-01-23T11:03:47.823Z,52.73
2019-01-23T11:06:27.738Z,51.30
2019-01-23T11:09:09.766Z,51.80
2019-01-23T11:11:49.710Z,51.70
2019-01-23T11:14:29.409Z,56.53
2019-01-23T11:17:09.286Z,54.77
2019-01-23T11:19:49.120Z,53.45
2019-01-23T11:22:28.850Z,53.17
2019-01-23T11:25:10.222Z,49.35
2019-01-23T11:27:51.509Z,49.75
2019-01-23T11:30:31.259Z,54.40
2019-01-23T11:33:11.245Z,49.18
2019-01-23T11:35:50.961Z,50.60
2019-01-23T11:38:30.799Z,50.48
2019-01-23T11:41:10.547Z,47.50
2019-01-23T11:43:50.887Z,48.00
2019-01-23T11:46:30.624Z,51.48
2019-01-23T11:49:10.416Z,50.10
2019-01-23T11:51:50.123Z,45.00
2019-01-23T11:54:30.784Z,43.45
2019-01-23T11:57:11.480Z,47.35
2019-01-23T11:59:51.162Z,48.52
2019-01-23T12:02:31.994Z,39.83
2019-01-23T12:05:14.549Z,46.02
2019-01-23T12:07:54.420Z,45.43
2019-01-23T12:10:34.531Z,46.48
2019-01-23T12:13:14.274Z,51.42
2019-01-23T12:15:55.265Z,43.98
2019-01-23T12:18:36.142Z,45.70
2019-01-23T12:21:15.865Z,45.33
2019-01-23T12:23:58.367Z,41.98
2019-01-23T12:26:37.406Z,44.73
2019-01-23T12:29:17.618Z,46.02
2019-01-23T12:31:59.155Z,39.63
2019-01-23T12:34:38.886Z,44.03
2019-01-23T12:37:19.081Z,40.23
2019-01-23T12:39:59.852Z,38.92
2019-01-23T12:42:40.378Z,40.05
2019-01-23T12:45:23.456Z,42.03
2019-01-23T12:48:05.637Z,37.15
2019-01-23T12:50:45.317Z,38.48
2019-01-23T12:53:25.300Z,37.78
2019-01-23T12:56:05.580Z,39.18
2019-01-23T12:58:45.539Z,37.55
2019-01-23T13:01:25.229Z,37.83
2019-01-23T13:04:05.245Z,35.92
2019-01-23T13:06:45.076Z,39.53
2019-01-23T13:09:25.907Z,33.20
2019-01-23T13:12:06.610Z,33.15
2019-01-23T13:14:46.453Z,35.70
2019-01-23T13:17:26.332Z,36.13
2019-01-23T13:20:09.520Z,31.00
2019-01-23T13:22:50.614Z,30.60
2019-01-23T13:25:31.096Z,50.83
2019-01-23T13:28:11.796Z,96.72
2019-01-23T13:30:52.722Z,112.15
2019-01-23T13:33:32.543Z,110.08
2019-01-23T13:36:12.402Z,119.60
2019-01-23T13:38:52.228Z,109.10
2019-01-23T13:41:31.974Z,114.00
2019-01-23T13:44:11.731Z,119.20
2019-01-23T13:46:51.409Z,111.20
2019-01-23T13:49:31.141Z,112.77
2019-01-23T13:52:10.842Z,122.07
2019-01-23T13:54:50.749Z,127.67
2019-01-23T13:57:30.555Z,108.05
2019-01-23T14:00:16.960Z,113.28
2019-01-23T14:02:57.006Z,116.67
2019-01-23T14:05:36.759Z,120.10
2019-01-23T14:08:16.758Z,140.03
2019-01-23T14:10:55.931Z,137.03
2019-01-23T14:13:35.209Z,135.77
2019-01-23T14:16:14.317Z,132.65
2019-01-23T14:18:53.392Z,150.35
2019-01-23T14:21:32.681Z,142.33
2019-01-23T14:24:11.823Z,147.27
2019-01-23T14:26:51.146Z,148.90
2019-01-23T14:29:30.445Z,151.97
2019-01-23T14:32:09.533Z,158.07
2019-01-23T14:34:48.665Z,146.73
2019-01-23T14:37:27.753Z,143.27
2019-01-23T14:40:07.536Z,142.60
2019-01-23T14:42:46.902Z,160.60
2019-01-23T14:45:32.177Z,141.20
2019-01-23T14:48:11.617Z,137.57
2019-01-23T14:50:51.051Z,150.00
2019-01-23T14:53:30.574Z,147.83
2019-01-23T14:56:11.869Z,149.77
2019-01-23T14:58:51.063Z,150.40
2019-01-23T15:01:30.436Z,149.80
2019-01-23T15:04:09.598Z,143.53
2019-01-23T15:06:48.948Z,138.13
2019-01-23T15:09:28.424Z,134.07
2019-01-23T15:12:07.648Z,139.63
2019-01-23T15:14:46.890Z,148.33
2019-01-23T15:17:26.155Z,147.60
2019-01-23T15:20:09.567Z,141.40
2019-01-23T15:22:48.856Z,141.07
2019-01-23T15:25:28.266Z,142.87
2019-01-23T15:28:07.529Z,145.20
2019-01-23T15:30:46.755Z,142.73
2019-01-23T15:33:25.991Z,154.67
2019-01-23T15:36:05.455Z,155.93
2019-01-23T15:38:44.977Z,141.33
2019-01-23T15:41:27.517Z,144.20
2019-01-23T15:44:06.918Z,132.43
2019-01-23T15:46:46.983Z,137.43
2019-01-23T15:49:26.763Z,150.23
2019-01-23T15:52:06.287Z,154.27
2019-01-23T15:54:46.705Z,129.87
2019-01-23T15:57:29.201Z,139.97
2019-01-23T16:00:14.951Z,130.27
2019-01-23T16:02:54.305Z,128.03
2019-01-23T16:05:33.605Z,130.63
2019-01-23T16:08:12.978Z,132.00
2019-01-23T16:10:52.173Z,122.33
2019-01-23T16:13:32.032Z,116.57
2019-01-23T16:16:11.608Z,148.87
2019-01-23T16:18:51.013Z,128.53
2019-01-23T16:21:30.609Z,134.57
2019-01-23T16:24:10.863Z,128.57
2019-01-23T16:26:50.828Z,121.80
2019-01-23T16:29:31.631Z,122.67
2019-01-23T16:32:11.025Z,136.13
2019-01-23T16:34:50.302Z,122.37
2019-01-23T16:37:29.636Z,130.10
2019-01-23T16:40:09.379Z,117.83
2019-01-23T16:42:48.972Z,119.63
2019-01-23T16:45:29.620Z,127.17
2019-01-23T16:48:09.159Z,124.87
2019-01-23T16:50:48.567Z,120.47
2019-01-23T16:53:28.868Z,120.60
2019-01-23T16:56:08.415Z,122.57
2019-01-23T16:58:48.052Z,127.27
2019-01-23T17:01:28.542Z,115.87
2019-01-23T17:04:08.376Z,118.00
2019-01-23T17:06:50.394Z,118.00
2019-01-23T17:09:30.819Z,121.77
2019-01-23T17:12:11.596Z,129.37
2019-01-23T17:14:51.880Z,130.80
2019-01-23T17:17:31.292Z,139.13
2019-01-23T17:20:22.948Z,120.07
2019-01-23T17:23:04.187Z,112.83
2019-01-23T17:25:46.505Z,113.73
2019-01-23T17:28:26.353Z,110.00
2019-01-23T17:31:07.041Z,111.07
2019-01-23T17:33:46.800Z,101.00
2019-01-23T17:36:29.434Z,104.23
2019-01-23T17:39:11.014Z,98.83
2019-01-23T17:41:50.650Z,101.30
2019-01-23T17:44:31.515Z,109.00
2019-01-23T17:47:13.725Z,98.90
2019-01-23T17:49:53.969Z,99.73
2019-01-23T17:52:35.450Z,101.20
2019-01-23T17:55:26.239Z,99.80
2019-01-23T17:58:13.532Z,83.07
2019-01-23T18:00:57.943Z,88.00
2019-01-23T18:03:38.507Z,94.30
2019-01-23T18:06:18.473Z,83.00
2019-01-23T18:08:59.222Z,93.43
2019-01-23T18:11:39.192Z,76.40
2019-01-23T18:14:22.300Z,79.03
2019-01-23T18:17:02.982Z,83.00
2019-01-23T18:19:43.297Z,86.43
2019-01-23T18:22:23.910Z,82.43
2019-01-23T18:25:04.467Z,83.67
2019-01-23T18:27:44.892Z,81.13
2019-01-23T18:30:41.962Z,81.63
2019-01-23T18:33:41.187Z,86.33
2019-01-23T18:36:49.920Z,82.97
2019-01-23T18:40:27.726Z,77.80
2019-01-23T18:44:09.469Z,88.03
2019-01-23T18:47:50.005Z,81.10
2019-01-23T18:51:27.475Z,71.33
2019-01-23T18:54:08.864Z,66.73
2019-01-23T18:56:49.899Z,71.83
2019-01-23T18:59:30.694Z,71.23
2019-01-23T19:02:11.867Z,68.07
2019-01-23T19:04:52.109Z,77.20
2019-01-23T19:07:33.327Z,71.37
2019-01-23T19:10:16.788Z,70.40
2019-01-23T19:12:58.481Z,69.00
2019-01-23T19:15:39.199Z,72.20
2019-01-23T19:18:22.137Z,65.83
2019-01-23T19:21:07.976Z,71.43
2019-01-23T19:23:48.888Z,77.33
2019-01-23T19:26:29.145Z,66.90
2019-01-23T19:29:09.950Z,69.03
2019-01-23T19:31:50.284Z,70.13
2019-01-23T19:34:32.417Z,69.90
2019-01-23T19:37:12.979Z,68.33
2019-01-23T19:39:53.597Z,70.23
2019-01-23T19:42:33.701Z,70.40
2019-01-23T19:45:21.254Z,75.70
2019-01-23T19:48:05.065Z,70.40
2019-01-23T19:50:45.592Z,67.43
2019-01-23T19:53:26.211Z,71.00
2019-01-23T19:56:07.888Z,77.13
2019-01-23T19:58:48.240Z,76.67
2019-01-23T20:01:28.867Z,64.67
2019-01-23T20:04:10.133Z,69.13
2019-01-23T20:06:50.699Z,70.83
2019-01-23T20:09:30.968Z,74.47
2019-01-23T20:12:15.725Z,79.00
2019-01-23T20:14:54.255Z,65.03
2019-01-23T20:17:34.851Z,70.57
2019-01-23T20:20:15.590Z,77.63
2019-01-23T20:22:57.481Z,69.27
2019-01-23T20:25:37.784Z,67.80
2019-01-23T20:28:24.211Z,66.70
2019-01-23T20:31:04.552Z,82.50
2019-01-23T20:34:07.098Z,74.43
2019-01-23T20:36:54.083Z,97.33
2019-01-23T20:39:37.613Z,79.27
2019-01-23T20:42:18.278Z,74.50
2019-01-23T20:44:59.800Z,80.43
2019-01-23T20:47:41.444Z,93.43
2019-01-23T20:50:25.560Z,81.67
2019-01-23T20:53:08.054Z,77.57
2019-01-23T20:55:53.050Z,79.27
2019-01-23T20:58:33.170Z,81.27
2019-01-23T21:01:13.363Z,89.07
2019-01-23T21:03:53.903Z,84.33
2019-01-23T21:06:34.125Z,115.27
2019-01-23T21:09:14.318Z,80.87
2019-01-23T21:11:54.514Z,93.33
2019-01-23T21:14:36.030Z,84.93
2019-01-23T21:17:15.963Z,96.37
2019-01-23T21:19:56.338Z,94.53
2019-01-23T21:22:36.248Z,93.57
2019-01-23T21:25:17.092Z,85.17
2019-01-23T21:28:00.942Z,96.17
2019-01-23T21:30:42.137Z,97.13
2019-01-23T21:33:22.183Z,94.87
2019-01-23T21:36:02.185Z,100.67
2019-01-23T21:38:41.946Z,91.93
2019-01-23T21:41:23.194Z,92.37
2019-01-23T21:44:03.125Z,94.53
2019-01-23T21:46:42.747Z,90.63
2019-01-23T21:49:22.324Z,85.77
2019-01-23T21:52:03.951Z,85.90
2019-01-23T21:54:43.518Z,93.80
2019-01-23T21:57:23.302Z,88.10
2019-01-23T22:00:02.829Z,105.90
2019-01-23T22:02:42.145Z,113.07
2019-01-23T22:05:21.723Z,103.60
2019-01-23T22:08:01.540Z,111.50
2019-01-23T22:10:40.868Z,89.57
2019-01-23T22:13:20.126Z,90.17
2019-01-23T22:16:00.494Z,92.67
2019-01-23T22:18:40.152Z,93.53
2019-01-23T22:21:19.577Z,90.00
2019-01-23T22:23:59.150Z,89.03
2019-01-23T22:26:38.301Z,89.23
2019-01-23T22:29:18.540Z,95.80
2019-01-23T22:31:57.915Z,93.13
2019-01-23T22:34:37.122Z,96.43
2019-01-23T22:37:16.379Z,96.70
2019-01-23T22:39:58.226Z,91.37
2019-01-23T22:42:37.437Z,102.40
2019-01-23T22:45:19.231Z,94.17
2019-01-23T22:47:58.429Z,93.13
2019-01-23T22:50:37.591Z,100.33
2019-01-23T22:53:16.759Z,97.97
2019-01-23T22:55:56.210Z,94.20
2019-01-23T22:58:35.324Z,96.97
2019-01-23T23:01:32.293Z,91.77
2019-01-23T23:04:11.616Z,104.37
2019-01-23T23:06:50.987Z,98.20
2019-01-23T23:09:30.150Z,92.13
2019-01-23T23:12:09.600Z,103.67
2019-01-23T23:15:00.686Z,95.93
2019-01-23T23:17:40.123Z,102.53
2019-01-23T23:20:19.217Z,95.53
2019-01-23T23:22:58.718Z,96.40
2019-01-23T23:25:37.870Z,92.73
2019-01-23T23:28:18.535Z,111.00
2019-01-23T23:30:57.783Z,103.80
2019-01-23T23:33:36.958Z,93.60
2019-01-23T23:36:16.275Z,97.77
2019-01-23T23:38:55.506Z,88.53
2019-01-23T23:41:34.839Z,90.57
2019-01-23T23:44:16.405Z,103.87
2019-01-23T23:46:55.702Z,96.63
2019-01-23T23:49:34.975Z,104.97
2019-01-23T23:52:14.393Z,101.77
2019-01-23T23:54:53.847Z,97.03
2019-01-23T23:57:33.080Z,101.30
